createdAt,value
2022-12-04T00:16:36.392Z,253
2022-12-04T00:36:36.339Z,253
2022-12-04T00:56:36.373Z,249
2022-12-04T01:16:36.426Z,255
2022-12-04T01:36:36.373Z,252
2022-12-04T01:56:36.415Z,253
2022-12-04T02:16:36.479Z,253
2022-12-04T02:36:36.446Z,253
2022-12-04T02:56:36.526Z,252
2022-12-04T03:16:36.536Z,253
2022-12-04T03:36:36.487Z,253
2022-12-04T03:56:36.522Z,249
2022-12-04T04:16:36.535Z,253
2022-12-04T04:36:36.583Z,254
2022-12-04T04:56:36.608Z,250
2022-12-04T05:16:36.636Z,250
2022-12-04T05:36:36.688Z,250
2022-12-04T05:56:36.633Z,249
2022-12-04T06:16:36.688Z,250
2022-12-04T06:36:36.676Z,250
2022-12-04T06:56:36.708Z,251
2022-12-04T07:16:40.583Z,249
2022-12-04T07:36:36.739Z,249
2022-12-04T07:56:36.733Z,249
2022-12-04T08:16:36.871Z,249
2022-12-04T08:36:36.795Z,245
2022-12-04T08:56:36.833Z,251
2022-12-04T09:16:36.825Z,250
2022-12-04T09:56:36.883Z,249
2022-12-04T10:16:36.749Z,248
2022-12-04T10:36:36.886Z,247
2022-12-04T10:56:36.902Z,247
2022-12-04T11:16:37.064Z,244
2022-12-04T11:36:36.973Z,245
2022-12-04T11:56:36.956Z,245
2022-12-04T12:16:37.126Z,247
2022-12-04T12:36:41.347Z,246
2022-12-04T12:56:37.048Z,246
2022-12-04T13:16:36.570Z,245
2022-12-04T13:36:37.077Z,246
2022-12-04T13:56:37.102Z,247
2022-12-04T14:16:37.215Z,248
2022-12-04T14:36:37.119Z,246
2022-12-04T14:56:37.152Z,248
2022-12-04T15:16:36.644Z,248
2022-12-04T15:36:36.649Z,248
2022-12-04T15:56:37.172Z,249
2022-12-04T16:16:37.000Z,248
2022-12-04T16:36:37.211Z,248
2022-12-04T16:56:37.213Z,249
2022-12-04T17:16:37.262Z,246
2022-12-04T17:36:37.064Z,248
2022-12-04T17:56:37.273Z,248
2022-12-04T18:16:37.316Z,246
2022-12-04T18:36:37.315Z,246
2022-12-04T18:56:37.358Z,250
2022-12-04T19:16:37.391Z,249
2022-12-04T19:36:37.356Z,246
2022-12-04T19:56:37.369Z,245
2022-12-04T20:16:36.980Z,245
2022-12-04T20:36:37.410Z,246
2022-12-04T20:56:37.471Z,245
2022-12-04T21:16:37.471Z,244
2022-12-04T21:36:37.268Z,246
2022-12-04T21:56:37.464Z,245
2022-12-04T22:16:41.777Z,245
2022-12-04T22:36:37.510Z,246
2022-12-04T22:56:37.538Z,245
2022-12-04T23:16:37.072Z,246
2022-12-04T23:36:37.563Z,244
2022-12-04T23:56:37.582Z,245
